Time;durP1;ratioP1;P1;durP2;ratioP2;P2;SDS_P1;SDS_P2;PMS_P1;PMS_P2;Temp;Humidity;BMP_temperature;BMP_pressure;BME280_temperature;BME280_humidity;BME280_pressure;Samples;Min_cycle;Max_cycle;Signal;HPM_P1;HPM_P2
2021/09/13 00:00:19;;;;;;;4.90;4.50;;;;;;;11.35;100.00;98196.63;4984799;28;20347;-66
2021/09/13 00:02:47;;;;;;;4.87;4.57;;;;;;;11.34;100.00;98198.44;4976517;28;20295;-67
2021/09/13 00:05:15;;;;;;;5.17;4.50;;;;;;;11.27;100.00;98192.97;4998505;28;20204;-66
2021/09/13 00:07:44;;;;;;;4.90;4.50;;;;;;;11.26;100.00;98191.31;4992558;28;20401;-68
2021/09/13 00:10:12;;;;;;;4.60;4.30;;;;;;;11.39;100.00;98192.66;4991962;28;20462;-68
2021/09/13 00:12:40;;;;;;;5.23;4.80;;;;;;;11.37;100.00;98187.53;4993998;28;20204;-68
2021/09/13 00:15:10;;;;;;;5.00;4.60;;;;;;;11.28;100.00;98188.50;5002578;28;20335;-68
2021/09/13 00:17:38;;;;;;;4.70;4.40;;;;;;;11.37;100.00;98194.63;4964541;28;20242;-68
2021/09/13 00:20:08;;;;;;;4.30;4.00;;;;;;;11.24;100.00;98198.63;4996341;28;20287;-67
2021/09/13 00:22:36;;;;;;;4.63;4.33;;;;;;;11.20;100.00;98189.31;5000228;28;20204;-67
2021/09/13 00:25:06;;;;;;;4.40;4.20;;;;;;;11.19;100.00;98197.44;4985025;28;20472;-66
2021/09/13 00:27:35;;;;;;;5.40;4.90;;;;;;;11.21;100.00;98195.44;4997291;28;20216;-67
2021/09/13 00:30:03;;;;;;;5.00;4.63;;;;;;;11.16;100.00;98198.56;4996419;28;20205;-67
2021/09/13 00:32:31;;;;;;;5.27;4.77;;;;;;;11.09;100.00;98200.22;4968246;28;20212;-68
2021/09/13 00:34:59;;;;;;;4.93;4.53;;;;;;;10.94;100.00;98192.91;4994847;28;20240;-66
2021/09/13 00:37:27;;;;;;;4.97;4.67;;;;;;;11.08;100.00;98196.75;4998573;28;20775;-67
2021/09/13 00:39:56;;;;;;;5.43;5.03;;;;;;;11.14;100.00;98196.09;4987223;28;20213;-67
2021/09/13 00:42:25;;;;;;;4.70;4.40;;;;;;;11.04;100.00;98197.22;4998029;28;20236;-68
2021/09/13 00:44:54;;;;;;;4.93;4.53;;;;;;;11.08;100.00;98199.41;4994067;28;20220;-67
2021/09/13 00:47:22;;;;;;;5.20;4.80;;;;;;;11.18;100.00;98190.47;4966437;28;20761;-68
2021/09/13 00:49:50;;;;;;;5.67;5.17;;;;;;;11.15;100.00;98199.56;4967250;28;20221;-66
2021/09/13 00:52:18;;;;;;;5.00;4.70;;;;;;;11.11;100.00;98190.28;5000432;28;20362;-68
2021/09/13 00:54:47;;;;;;;4.77;4.47;;;;;;;11.09;100.00;98200.22;4999420;28;20231;-67
2021/09/13 00:57:16;;;;;;;5.30;4.90;;;;;;;11.11;100.00;98196.44;4999280;28;20228;-68
2021/09/13 00:59:45;;;;;;;5.00;4.37;;;;;;;10.97;100.00;98191.72;4998575;28;20200;-67
2021/09/13 01:02:13;;;;;;;5.97;5.53;;;;;;;10.92;100.00;98192.25;4979880;28;20501;-68
2021/09/13 01:04:41;;;;;;;5.27;4.97;;;;;;;10.94;100.00;98198.22;4963121;28;20707;-68
2021/09/13 01:07:09;;;;;;;4.90;4.60;;;;;;;10.90;100.00;98198.69;4977151;28;20255;-67
2021/09/13 01:09:37;;;;;;;4.80;4.50;;;;;;;10.82;100.00;98188.91;4989830;28;20200;-68
2021/09/13 01:12:06;;;;;;;5.63;5.23;;;;;;;10.77;100.00;98193.81;5003097;28;20211;-67
2021/09/13 01:14:36;;;;;;;5.50;5.03;;;;;;;10.88;100.00;98187.41;5001365;28;20374;-67
2021/09/13 01:17:07;;;;;;;5.50;5.10;;;;;;;10.71;100.00;98179.41;5001956;28;20433;-67
2021/09/13 01:19:35;;;;;;;5.40;5.00;;;;;;;10.72;100.00;98191.66;4965621;28;20454;-68
2021/09/13 01:22:05;;;;;;;5.50;4.97;;;;;;;10.70;100.00;98186.53;4992106;28;20623;-68
2021/09/13 01:24:34;;;;;;;5.77;5.37;;;;;;;10.64;100.00;98195.13;4997979;28;20824;-68
2021/09/13 01:27:05;;;;;;;5.70;5.33;;;;;;;10.62;100.00;98190.97;4995365;28;20257;-68
2021/09/13 01:29:33;;;;;;;5.33;4.93;;;;;;;10.59;100.00;98197.41;4995718;28;20512;-68
2021/09/13 01:32:02;;;;;;;5.43;5.00;;;;;;;10.67;100.00;98202.75;4996079;28;20213;-68
2021/09/13 01:34:30;;;;;;;5.20;4.67;;;;;;;10.71;100.00;98192.66;4994627;28;20380;-69
2021/09/13 01:36:59;;;;;;;5.47;4.97;;;;;;;10.60;100.00;98196.44;4970270;28;20592;-69
2021/09/13 01:39:26;;;;;;;6.17;5.57;;;;;;;10.59;100.00;98199.22;4979436;28;20606;-68
2021/09/13 01:41:56;;;;;;;5.20;4.80;;;;;;;10.63;100.00;98193.47;4996823;28;20267;-68
2021/09/13 01:44:24;;;;;;;5.03;4.73;;;;;;;10.63;100.00;98190.00;4996200;28;20201;-68
2021/09/13 01:46:52;;;;;;;5.30;4.90;;;;;;;10.47;100.00;98194.22;4996538;28;20208;-68
2021/09/13 01:49:20;;;;;;;4.80;4.40;;;;;;;10.44;100.00;98194.53;4993689;28;20723;-66
2021/09/13 01:51:48;;;;;;;4.90;4.60;;;;;;;10.39;100.00;98189.66;4964345;28;20732;-69
2021/09/13 01:54:16;;;;;;;4.97;4.60;;;;;;;10.37;100.00;98191.63;4981161;28;20217;-68
2021/09/13 01:56:43;;;;;;;4.93;4.53;;;;;;;10.29;100.00;98194.25;4982071;28;20299;-67
2021/09/13 01:59:13;;;;;;;4.83;4.53;;;;;;;10.28;100.00;98197.88;4998561;28;20467;-67
2021/09/13 02:01:41;;;;;;;5.20;4.80;;;;;;;10.22;100.00;98195.88;4994522;28;20254;-68
2021/09/13 02:04:10;;;;;;;5.60;5.20;;;;;;;10.31;100.00;98189.63;4996023;28;20711;-67
2021/09/13 02:06:38;;;;;;;5.27;4.90;;;;;;;10.28;100.00;98185.50;4965695;28;20208;-68
2021/09/13 02:09:06;;;;;;;5.13;4.73;;;;;;;10.26;100.00;98197.22;4985786;28;20216;-67
2021/09/13 02:11:33;;;;;;;4.83;4.53;;;;;;;10.21;100.00;98194.22;4981421;28;20517;-68
2021/09/13 02:14:01;;;;;;;5.40;4.40;;;;;;;10.16;100.00;98186.72;4979729;28;20213;-66
2021/09/13 02:16:31;;;;;;;5.13;4.23;;;;;;;10.17;100.00;98188.38;4994584;28;20260;-67
2021/09/13 02:18:59;;;;;;;4.57;4.27;;;;;;;10.14;100.00;98188.69;4984005;28;20223;-67
2021/09/13 02:21:27;;;;;;;4.87;4.37;;;;;;;10.19;100.00;98191.72;4961808;28;20591;-69
2021/09/13 02:23:55;;;;;;;4.90;4.50;;;;;;;10.20;100.00;98190.72;4990504;28;20593;-68
2021/09/13 02:26:23;;;;;;;4.80;4.43;;;;;;;10.05;100.00;98195.78;4993233;28;20673;-69
2021/09/13 02:28:51;;;;;;;4.73;4.43;;;;;;;9.97;100.00;98198.34;4987794;28;20225;-67
2021/09/13 02:31:19;;;;;;;5.53;4.53;;;;;;;9.91;100.00;98199.81;4987042;28;20437;-70
2021/09/13 02:33:48;;;;;;;4.80;4.50;;;;;;;9.92;100.00;98204.13;4997106;28;20205;-70
2021/09/13 02:36:16;;;;;;;4.60;4.30;;;;;;;9.97;100.00;98195.72;4963473;28;20455;-69
2021/09/13 02:38:44;;;;;;;5.20;4.80;;;;;;;10.02;100.00;98203.19;5001572;28;20230;-70
2021/09/13 02:41:12;;;;;;;4.60;4.10;;;;;;;9.98;100.00;98207.97;4970645;28;20229;-68
2021/09/13 02:43:40;;;;;;;5.40;5.00;;;;;;;10.06;100.00;98204.53;4998273;28;20209;-69
2021/09/13 02:46:08;;;;;;;4.57;4.37;;;;;;;9.94;100.00;98196.03;5001970;28;20613;-70
2021/09/13 02:48:36;;;;;;;4.33;4.03;;;;;;;9.90;100.00;98195.50;4986479;28;20729;-68
2021/09/13 02:51:05;;;;;;;5.03;4.63;;;;;;;9.85;100.00;98190.69;4996174;28;20438;-70
2021/09/13 02:53:35;;;;;;;5.30;4.90;;;;;;;10.02;100.00;98196.06;4962979;28;20651;-68
2021/09/13 02:56:03;;;;;;;5.07;4.67;;;;;;;9.97;100.00;98185.97;4959494;28;21219;-68
2021/09/13 02:58:31;;;;;;;6.67;5.17;;;;;;;10.01;100.00;98193.59;4987564;28;20236;-69
2021/09/13 03:00:59;;;;;;;4.93;4.60;;;;;;;9.95;100.00;98184.44;4998110;28;20209;-68
2021/09/13 03:03:28;;;;;;;4.83;4.53;;;;;;;9.89;100.00;98182.41;4988394;28;20208;-69
2021/09/13 03:05:56;;;;;;;4.70;4.40;;;;;;;9.80;100.00;98195.59;4994581;28;20201;-69
2021/09/13 03:08:25;;;;;;;5.30;4.90;;;;;;;9.82;100.00;98190.13;5000500;28;20232;-69
2021/09/13 03:10:53;;;;;;;4.83;4.40;;;;;;;9.87;100.00;98187.03;5001889;28;20213;-69
2021/09/13 03:13:21;;;;;;;5.17;4.77;;;;;;;9.83;100.00;98181.22;4965246;28;20217;-68
2021/09/13 03:15:49;;;;;;;4.93;4.60;;;;;;;9.75;100.00;98175.88;5002328;28;20220;-68
2021/09/13 03:18:17;;;;;;;5.53;5.03;;;;;;;9.75;100.00;98175.88;4992951;28;20320;-68
2021/09/13 03:20:45;;;;;;;5.10;4.70;;;;;;;9.77;100.00;98179.19;5000318;28;20597;-69
2021/09/13 03:23:13;;;;;;;5.53;5.13;;;;;;;9.73;100.00;98176.03;5002203;28;20219;-69
2021/09/13 03:25:42;;;;;;;5.03;4.73;;;;;;;9.74;100.00;98184.78;5002563;28;20316;-70
2021/09/13 03:28:10;;;;;;;5.70;5.20;;;;;;;9.73;100.00;98180.47;4957217;28;20616;-68
2021/09/13 03:30:38;;;;;;;5.47;5.17;;;;;;;9.68;100.00;98183.63;5003147;28;20296;-69
2021/09/13 03:33:06;;;;;;;5.20;4.90;;;;;;;9.64;100.00;98185.72;4989186;28;20580;-69
2021/09/13 03:35:34;;;;;;;5.20;4.73;;;;;;;9.60;100.00;98181.72;4987633;28;20211;-69
2021/09/13 03:38:02;;;;;;;5.60;4.87;;;;;;;9.56;100.00;98186.47;5003181;28;20694;-69
2021/09/13 03:40:30;;;;;;;5.20;4.43;;;;;;;9.64;100.00;98183.06;4996847;28;20305;-69
2021/09/13 03:42:59;;;;;;;5.40;5.00;;;;;;;9.54;100.00;98184.97;4965329;28;20626;-68
2021/09/13 03:45:27;;;;;;;5.37;4.97;;;;;;;9.52;100.00;98184.31;5000129;28;20196;-70
2021/09/13 03:47:55;;;;;;;5.90;5.40;;;;;;;9.53;100.00;98183.31;4987442;28;20786;-69
2021/09/13 03:50:23;;;;;;;5.20;4.70;;;;;;;9.53;100.00;98184.13;4984432;28;20552;-69
2021/09/13 03:52:51;;;;;;;4.60;4.30;;;;;;;9.50;100.00;98179.16;4998191;28;20208;-69
2021/09/13 03:55:19;;;;;;;5.77;5.30;;;;;;;9.47;100.00;98179.47;4993536;28;20232;-68
2021/09/13 03:57:47;;;;;;;5.07;4.67;;;;;;;9.53;100.00;98184.13;4995489;28;20546;-69
2021/09/13 04:00:17;;;;;;;5.63;5.17;;;;;;;9.59;100.00;98189.81;4960455;28;20542;-68
2021/09/13 04:02:47;;;;;;;4.90;4.43;;;;;;;9.48;100.00;98189.06;4982133;28;20231;-69
2021/09/13 04:05:19;;;;;;;4.73;4.40;;;;;;;9.44;100.00;98182.41;4970166;28;20344;-67
2021/09/13 04:10:36;;;;;;;4.70;4.20;;;;;;;9.38;100.00;98181.19;4989491;28;20271;-71
2021/09/13 04:13:04;;;;;;;5.50;4.83;;;;;;;9.36;100.00;98183.16;4998499;28;20212;-71
2021/09/13 04:15:34;;;;;;;5.03;4.73;;;;;;;9.37;100.00;98184.81;4966069;28;20328;-70
2021/09/13 04:18:03;;;;;;;4.80;4.50;;;;;;;9.29;100.00;98181.28;5001051;28;20267;-70
2021/09/13 04:20:31;;;;;;;5.00;4.70;;;;;;;9.30;100.00;98178.50;4973353;28;20200;-70
2021/09/13 04:22:58;;;;;;;5.20;4.63;;;;;;;9.36;100.00;98187.63;5002288;28;20320;-71
2021/09/13 04:25:26;;;;;;;5.30;4.80;;;;;;;9.23;100.00;98178.25;4994510;28;20633;-71
2021/09/13 04:27:54;;;;;;;5.27;4.87;;;;;;;9.16;100.00;98182.47;4994959;28;20708;-69
2021/09/13 04:30:25;;;;;;;4.60;4.30;;;;;;;9.16;100.00;98179.84;4964671;28;20216;-70
2021/09/13 04:32:54;;;;;;;5.17;4.70;;;;;;;9.17;100.00;98178.03;5001340;28;20209;-71
2021/09/13 04:35:22;;;;;;;4.90;4.60;;;;;;;9.12;100.00;98178.47;4971601;28;20212;-70
2021/09/13 04:37:50;;;;;;;4.90;4.60;;;;;;;9.10;100.00;98173.34;5000658;28;20241;-70
2021/09/13 04:40:19;;;;;;;4.63;4.33;;;;;;;9.04;100.00;98184.50;4997235;28;20295;-71
2021/09/13 04:42:46;;;;;;;4.73;4.33;;;;;;;9.07;100.00;98183.38;4996968;28;20196;-71
2021/09/13 04:45:14;;;;;;;4.67;4.40;;;;;;;9.12;100.00;98178.47;4969104;28;20300;-71
2021/09/13 04:47:42;;;;;;;4.83;4.43;;;;;;;9.06;100.00;98177.25;4998139;28;20220;-72
2021/09/13 04:50:12;;;;;;;4.63;4.33;;;;;;;9.04;100.00;98175.75;4983006;28;20217;-71
2021/09/13 04:52:40;;;;;;;4.50;4.20;;;;;;;9.06;100.00;98174.63;4993337;28;20461;-71
2021/09/13 04:55:09;;;;;;;4.17;3.90;;;;;;;9.07;100.00;98176.28;4996018;28;20205;-71
2021/09/13 04:57:37;;;;;;;5.53;5.03;;;;;;;9.12;100.00;98179.31;4993678;28;20224;-71
2021/09/13 05:00:06;;;;;;;4.57;4.17;;;;;;;9.11;100.00;98177.66;4992260;28;20417;-71
2021/09/13 05:02:34;;;;;;;4.40;4.00;;;;;;;9.24;100.00;98181.75;4977884;28;21409;-68
2021/09/13 05:05:02;;;;;;;4.93;4.63;;;;;;;9.40;100.00;98181.88;4960671;28;20557;-70
2021/09/13 05:07:32;;;;;;;5.07;4.73;;;;;;;9.43;100.00;98175.47;4985944;28;20752;-71
2021/09/13 05:10:00;;;;;;;5.43;5.07;;;;;;;9.40;100.00;98179.22;5003991;28;20244;-70
2021/09/13 05:12:28;;;;;;;5.57;4.43;;;;;;;9.38;100.00;98173.25;5002296;28;20685;-70
2021/09/13 05:14:56;;;;;;;4.83;4.53;;;;;;;9.40;100.00;98176.59;4983671;28;20216;-69
2021/09/13 05:17:23;;;;;;;5.10;4.40;;;;;;;9.51;100.00;98172.06;4999189;28;20426;-69
2021/09/13 05:19:52;;;;;;;4.87;4.47;;;;;;;9.56;100.00;98183.84;4998787;28;20668;-70
2021/09/13 05:22:20;;;;;;;5.10;4.80;;;;;;;9.55;100.00;98178.72;4970369;28;20216;-69
2021/09/13 05:24:49;;;;;;;5.17;4.80;;;;;;;9.57;100.00;98168.81;4999584;28;20205;-69
2021/09/13 05:27:17;;;;;;;5.47;4.97;;;;;;;9.62;100.00;98184.19;4997677;28;20883;-70
2021/09/13 05:29:45;;;;;;;5.27;4.40;;;;;;;9.68;100.00;98186.25;4981757;28;20211;-70
2021/09/13 05:32:13;;;;;;;5.30;4.90;;;;;;;9.73;100.00;98189.28;4992687;28;20205;-71
2021/09/13 05:34:41;;;;;;;5.20;4.80;;;;;;;9.81;100.00;98188.47;4999807;28;20236;-69
2021/09/13 05:37:09;;;;;;;5.33;4.80;;;;;;;9.94;100.00;98194.22;4964277;28;20240;-69
2021/09/13 05:39:37;;;;;;;5.67;5.17;;;;;;;9.98;100.00;98198.22;5001709;28;20550;-69
2021/09/13 05:42:07;;;;;;;5.50;5.00;;;;;;;10.08;100.00;98192.81;4999002;28;20720;-69
2021/09/13 05:44:35;;;;;;;6.17;5.00;;;;;;;10.22;100.00;98194.03;4991523;28;20212;-70
2021/09/13 05:47:03;;;;;;;5.10;4.70;;;;;;;10.39;100.00;98192.31;5000267;28;20596;-69
2021/09/13 05:49:31;;;;;;;5.50;5.10;;;;;;;10.37;100.00;98199.59;4997428;28;20205;-70
2021/09/13 05:51:59;;;;;;;5.33;4.93;;;;;;;10.38;100.00;98187.19;4965238;28;20263;-69
2021/09/13 05:54:27;;;;;;;5.33;4.93;;;;;;;10.46;100.00;98189.91;4996651;28;20323;-69
2021/09/13 05:56:55;;;;;;;6.00;5.40;;;;;;;10.72;100.00;98194.31;4998049;28;20228;-69
2021/09/13 05:59:25;;;;;;;5.57;5.20;;;;;;;10.74;100.00;98183.53;4991651;28;20255;-69
2021/09/13 06:01:53;;;;;;;4.77;4.47;;;;;;;10.78;100.00;98188.38;4986475;28;20216;-70
2021/09/13 06:04:22;;;;;;;5.23;4.90;;;;;;;10.91;100.00;98192.38;4998629;28;20411;-69
2021/09/13 06:06:50;;;;;;;5.90;5.40;;;;;;;10.87;100.00;98189.25;4953242;28;20220;-69
2021/09/13 06:09:17;;;;;;;5.97;5.37;;;;;;;10.91;100.00;98197.69;4999889;28;20453;-69
2021/09/13 06:11:45;;;;;;;6.80;4.70;;;;;;;11.04;100.00;98199.88;5001477;28;20208;-69
2021/09/13 06:14:14;;;;;;;5.60;5.17;;;;;;;11.09;100.00;98201.06;4991917;28;20543;-71
2021/09/13 06:16:44;;;;;;;6.07;5.43;;;;;;;11.18;100.00;98204.56;4995744;28;20209;-70
2021/09/13 06:19:12;;;;;;;6.17;5.03;;;;;;;11.41;100.00;98203.94;5002429;28;20298;-70
2021/09/13 06:21:39;;;;;;;5.87;5.37;;;;;;;11.61;100.00;98200.97;4964248;28;20212;-72
2021/09/13 06:24:08;;;;;;;6.27;5.47;;;;;;;11.71;100.00;98209.59;4998850;28;20211;-72
2021/09/13 06:26:36;;;;;;;4.93;4.53;;;;;;;11.90;100.00;98207.59;5000686;28;20597;-72
2021/09/13 06:29:05;;;;;;;5.17;4.87;;;;;;;11.96;100.00;98218.38;5002980;28;20526;-74
2021/09/13 06:31:33;;;;;;;6.27;5.63;;;;;;;12.08;100.00;98216.25;4988066;28;20224;-71
2021/09/13 06:34:02;;;;;;;6.00;5.40;;;;;;;12.04;100.00;98209.59;5000872;28;20914;-72
2021/09/13 06:36:30;;;;;;;6.03;5.43;;;;;;;12.07;100.00;98216.41;4995632;28;20545;-70
2021/09/13 06:38:58;;;;;;;5.87;4.80;;;;;;;12.14;100.00;98220.06;4970817;28;20693;-69
2021/09/13 06:41:26;;;;;;;5.93;5.47;;;;;;;12.15;100.00;98217.22;5001622;28;20240;-70
2021/09/13 06:43:54;;;;;;;5.03;4.60;;;;;;;12.18;100.00;98208.09;5003402;28;20213;-69
2021/09/13 06:46:25;;;;;;;5.10;4.70;;;;;;;12.33;100.00;98208.22;4990931;28;21117;-70
2021/09/13 06:48:53;;;;;;;6.00;5.57;;;;;;;12.40;100.00;98209.19;4995718;28;20724;-70
2021/09/13 06:51:23;;;;;;;7.97;6.83;;;;;;;12.45;100.00;98204.19;4997973;28;20449;-71
2021/09/13 06:53:50;;;;;;;5.67;5.17;;;;;;;12.50;100.00;98201.03;4964828;28;20224;-70
2021/09/13 06:56:18;;;;;;;5.73;5.20;;;;;;;12.50;100.00;98208.16;4996365;28;20784;-69
2021/09/13 06:58:46;;;;;;;6.00;5.60;;;;;;;12.48;100.00;98215.50;4999703;28;20224;-69
2021/09/13 07:01:14;;;;;;;5.37;4.90;;;;;;;12.33;100.00;98213.56;4985734;28;20216;-69
2021/09/13 07:03:43;;;;;;;5.37;4.97;;;;;;;12.54;100.00;98218.31;4999646;28;20212;-70
2021/09/13 07:06:11;;;;;;;5.50;5.00;;;;;;;12.59;100.00;98223.09;4984819;28;20208;-69
2021/09/13 07:08:40;;;;;;;5.43;5.03;;;;;;;12.77;100.00;98220.19;4995547;28;20433;-70
2021/09/13 07:11:08;;;;;;;6.10;5.53;;;;;;;12.99;100.00;98215.94;4970945;28;20669;-71
2021/09/13 07:13:36;;;;;;;6.07;5.50;;;;;;;13.11;100.00;98215.56;4952574;28;20552;-70
2021/09/13 07:16:07;;;;;;;5.40;5.00;;;;;;;13.02;100.00;98223.56;4982536;28;20209;-71
2021/09/13 07:18:35;;;;;;;7.23;6.27;;;;;;;13.30;100.00;98220.44;5003147;28;20229;-71
2021/09/13 07:21:02;;;;;;;8.70;5.83;;;;;;;13.40;100.00;98224.69;4999363;28;20205;-70
2021/09/13 07:23:30;;;;;;;5.33;4.93;;;;;;;13.65;100.00;98227.22;4998613;28;20593;-69
2021/09/13 07:26:00;;;;;;;7.10;5.67;;;;;;;13.97;100.00;98234.09;4995005;28;20216;-71
2021/09/13 07:28:28;;;;;;;7.23;5.97;;;;;;;14.12;100.00;98236.00;4969443;28;20224;-70
2021/09/13 07:30:56;;;;;;;5.83;5.43;;;;;;;14.25;100.00;98240.72;4993273;28;20205;-70
2021/09/13 07:33:24;;;;;;;5.80;5.30;;;;;;;14.49;100.00;98234.28;5002777;28;20658;-70
2021/09/13 07:35:55;;;;;;;6.10;5.50;;;;;;;14.64;100.00;98244.97;4996877;28;20224;-70
2021/09/13 07:38:24;;;;;;;5.40;5.00;;;;;;;15.00;100.00;98240.72;5001081;28;20228;-71
2021/09/13 07:40:52;;;;;;;13.60;5.83;;;;;;;15.15;100.00;98243.38;5001349;28;20582;-70
2021/09/13 07:43:22;;;;;;;5.67;5.17;;;;;;;15.19;100.00;98240.16;4963134;28;20221;-71
2021/09/13 07:45:50;;;;;;;5.43;5.03;;;;;;;15.37;100.00;98243.41;4995244;28;20212;-71
2021/09/13 07:48:19;;;;;;;5.73;5.23;;;;;;;15.52;100.00;98246.84;5004766;28;20216;-71
2021/09/13 07:50:47;;;;;;;5.87;5.33;;;;;;;15.60;100.00;98240.56;4981906;28;20487;-70
2021/09/13 07:53:15;;;;;;;6.40;5.87;;;;;;;15.66;100.00;98244.31;4998572;28;20446;-69
2021/09/13 07:55:43;;;;;;;5.53;5.03;;;;;;;15.59;100.00;98252.28;4999696;28;20205;-70
2021/09/13 07:58:11;;;;;;;5.50;5.07;;;;;;;15.39;100.00;98254.72;4960775;28;21050;-71
2021/09/13 08:00:43;;;;;;;5.93;5.53;;;;;;;15.53;100.00;98247.66;4998978;28;20601;-71
2021/09/13 08:03:11;;;;;;;5.40;5.00;;;;;;;15.88;100.00;98248.66;4995004;28;20295;-70
2021/09/13 08:05:39;;;;;;;5.07;4.57;;;;;;;16.00;100.00;98248.97;4999299;28;20748;-70
2021/09/13 08:08:07;;;;;;;6.43;5.37;;;;;;;16.27;100.00;98253.72;4998084;28;20428;-70
2021/09/13 08:10:35;;;;;;;6.00;5.40;;;;;;;16.48;100.00;98252.81;5000266;28;20208;-70
2021/09/13 08:13:03;;;;;;;5.77;5.17;;;;;;;16.48;100.00;98250.16;4995045;28;20897;-70
2021/09/13 08:15:32;;;;;;;6.67;6.20;;;;;;;16.58;100.00;98250.63;4944844;28;20240;-71
2021/09/13 08:18:02;;;;;;;5.33;4.93;;;;;;;16.61;100.00;98254.75;4997679;28;20237;-70
2021/09/13 08:20:30;;;;;;;5.13;4.73;;;;;;;16.67;100.00;98259.31;4991117;28;22319;-69
2021/09/13 08:22:58;;;;;;;6.03;5.53;;;;;;;16.94;100.00;98259.47;4985320;28;20213;-71
2021/09/13 08:25:26;;;;;;;5.57;5.07;;;;;;;17.05;100.00;98253.56;4993878;28;20218;-70
2021/09/13 08:27:54;;;;;;;5.80;5.40;;;;;;;17.25;100.00;98257.34;4997567;28;20248;-71
2021/09/13 08:30:22;;;;;;;7.43;5.90;;;;;;;17.48;100.00;98255.16;4963449;28;20595;-70
2021/09/13 08:32:50;;;;;;;5.93;5.20;;;;;;;17.56;100.00;98262.16;5000152;28;20641;-70
2021/09/13 08:35:20;;;;;;;6.07;5.43;;;;;;;17.60;100.00;98255.38;4996351;28;20213;-69
2021/09/13 08:37:48;;;;;;;6.83;5.10;;;;;;;17.46;100.00;98262.59;4986349;28;20237;-70
2021/09/13 08:40:17;;;;;;;5.60;5.10;;;;;;;17.54;100.00;98268.78;4999862;28;20512;-70
2021/09/13 08:42:46;;;;;;;7.70;5.40;;;;;;;17.90;100.00;98264.91;4994167;28;20333;-70
2021/09/13 08:45:17;;;;;;;5.33;4.83;;;;;;;17.97;100.00;98264.91;4968896;28;20348;-70
2021/09/13 08:47:58;;;;;;;5.60;5.10;;;;;;;17.98;100.00;98264.72;5001316;28;20506;-70
2021/09/13 08:50:36;;;;;;;5.97;5.27;;;;;;;18.02;100.00;98270.53;4993809;28;20585;-70
2021/09/13 08:53:06;;;;;;;8.43;5.20;;;;;;;18.44;100.00;98267.63;4985437;28;20232;-68
2021/09/13 08:55:34;;;;;;;5.67;5.13;;;;;;;18.50;100.00;98264.94;4981250;28;20452;-69
2021/09/13 08:58:03;;;;;;;9.53;5.27;;;;;;;18.74;100.00;98261.78;4985585;28;20220;-71
2021/09/13 09:00:32;;;;;;;6.90;5.87;;;;;;;18.92;100.00;98269.16;4963184;28;20337;-73
2021/09/13 09:03:01;;;;;;;8.03;6.63;;;;;;;19.04;100.00;98274.75;5000609;28;20672;-72
2021/09/13 09:05:40;;;;;;;6.50;5.87;;;;;;;19.23;100.00;98271.13;4996376;28;20205;-71
2021/09/13 09:08:10;;;;;;;7.47;6.70;;;;;;;19.35;100.00;98265.13;5005158;28;20239;-72
2021/09/13 09:10:39;;;;;;;6.50;6.10;;;;;;;19.23;100.00;98273.03;4984467;28;20636;-71
2021/09/13 09:13:11;;;;;;;6.97;5.43;;;;;;;19.35;100.00;98271.28;4996852;28;20205;-72
2021/09/13 09:15:55;;;;;;;6.53;5.97;;;;;;;19.26;100.00;98277.13;4988773;28;20209;-71
2021/09/13 09:18:24;;;;;;;6.63;5.50;;;;;;;19.40;100.00;98267.13;4957108;28;20228;-72
2021/09/13 09:20:54;;;;;;;6.80;6.30;;;;;;;19.54;100.00;98274.13;4955115;28;20233;-71
2021/09/13 09:23:22;;;;;;;6.37;5.73;;;;;;;19.60;100.00;98275.09;4983967;28;20546;-71
2021/09/13 09:25:53;;;;;;;6.13;5.47;;;;;;;19.57;100.00;98271.00;4997138;28;20212;-71
2021/09/13 09:28:21;;;;;;;8.33;6.53;;;;;;;19.60;100.00;98269.72;4986719;28;20780;-71
2021/09/13 09:30:50;;;;;;;9.10;6.00;;;;;;;19.64;100.00;98274.47;4997823;28;20409;-72
2021/09/13 09:33:20;;;;;;;6.47;5.40;;;;;;;19.91;100.00;98265.41;4997194;28;20208;-71
2021/09/13 09:35:50;;;;;;;6.03;5.47;;;;;;;20.04;100.00;98269.88;4962081;28;20704;-72
2021/09/13 09:38:34;;;;;;;8.47;5.60;;;;;;;20.22;100.00;98266.44;4998290;28;20264;-71
2021/09/13 09:41:08;;;;;;;7.07;6.07;;;;;;;20.44;100.00;98274.91;4998658;28;20254;-71
2021/09/13 09:43:51;;;;;;;5.63;5.13;;;;;;;20.57;100.00;98260.50;4981671;28;20562;-72
2021/09/13 09:46:19;;;;;;;6.00;4.30;;;;;;;20.52;100.00;98268.44;4992067;28;20235;-72
2021/09/13 09:48:48;;;;;;;4.73;3.97;;;;;;;20.62;100.00;98259.81;4995823;28;20790;-72
2021/09/13 09:51:25;;;;;;;4.83;3.57;;;;;;;20.30;100.00;98257.25;4996069;28;20566;-72
2021/09/13 09:53:55;;;;;;;4.20;3.80;;;;;;;20.37;100.00;98264.22;4956562;28;20446;-72
2021/09/13 09:56:26;;;;;;;4.10;3.30;;;;;;;20.45;100.00;98254.19;5004529;28;20680;-71
2021/09/13 09:58:59;;;;;;;3.13;2.93;;;;;;;20.73;100.00;98253.72;4977784;28;20283;-71
2021/09/13 10:01:31;;;;;;;3.40;3.20;;;;;;;20.91;95.60;98257.47;5000697;28;20247;-72
2021/09/13 10:04:16;;;;;;;3.87;2.93;;;;;;;20.85;95.41;98253.84;4993486;28;20200;-71
2021/09/13 10:06:45;;;;;;;3.47;3.17;;;;;;;20.73;100.00;98256.41;4994917;28;21223;-72
2021/09/13 10:09:15;;;;;;;3.93;3.03;;;;;;;20.82;98.44;98240.78;4959543;28;20232;-70
2021/09/13 10:11:44;;;;;;;3.57;3.27;;;;;;;20.91;100.00;98247.53;4990982;28;20204;-70
2021/09/13 10:14:13;;;;;;;4.67;3.27;;;;;;;21.28;96.52;98246.66;4981423;28;20232;-70
2021/09/13 10:16:43;;;;;;;3.80;3.50;;;;;;;21.32;96.62;98239.78;4991002;28;20793;-71
2021/09/13 10:19:17;;;;;;;3.43;3.23;;;;;;;21.52;93.69;98238.69;4996092;28;20769;-70
2021/09/13 10:21:45;;;;;;;3.77;3.57;;;;;;;21.46;89.23;98236.91;4993645;28;20620;-69
2021/09/13 10:24:17;;;;;;;3.27;2.97;;;;;;;21.30;92.50;98233.78;4963691;28;20681;-68
2021/09/13 10:26:47;;;;;;;3.77;3.40;;;;;;;21.55;89.98;98230.13;4993088;28;20213;-70
2021/09/13 10:29:17;;;;;;;4.33;3.47;;;;;;;21.54;91.74;98234.69;5000691;28;20216;-70
2021/09/13 10:32:02;;;;;;;4.50;4.10;;;;;;;21.60;87.84;98232.97;4981420;28;20213;-70
2021/09/13 10:34:33;;;;;;;4.30;3.40;;;;;;;22.02;88.30;98231.31;4996038;28;20201;-70
2021/09/13 10:37:07;;;;;;;3.83;3.53;;;;;;;22.04;84.49;98226.50;4999210;28;20458;-70
2021/09/13 10:39:54;;;;;;;3.90;3.60;;;;;;;22.24;83.63;98218.91;4963106;28;20247;-68
2021/09/13 10:42:43;;;;;;;5.17;3.27;;;;;;;22.86;81.36;98222.16;4985730;28;20256;-66
2021/09/13 10:45:30;;;;;;;4.13;3.53;;;;;;;23.13;78.60;98227.03;4978924;28;20418;-66
2021/09/13 10:48:07;;;;;;;3.33;3.13;;;;;;;23.25;75.07;98217.00;4996246;28;20245;-68
2021/09/13 10:50:38;;;;;;;3.80;3.43;;;;;;;23.28;78.31;98223.78;4995237;28;20686;-68
2021/09/13 10:53:35;;;;;;;4.23;3.83;;;;;;;23.51;76.13;98217.47;4997242;28;20215;-68
2021/09/13 10:56:09;;;;;;;3.83;3.63;;;;;;;23.70;75.13;98228.06;4963610;28;20648;-68
2021/09/13 10:58:44;;;;;;;4.53;3.43;;;;;;;24.04;65.35;98224.56;5004111;28;20324;-69
2021/09/13 11:01:24;;;;;;;5.53;3.10;;;;;;;23.56;66.94;98225.69;4976139;28;20228;-68
2021/09/13 11:03:57;;;;;;;2.93;2.73;;;;;;;23.89;64.62;98217.03;5000475;28;20230;-67
2021/09/13 11:06:40;;;;;;;3.77;3.27;;;;;;;23.84;64.37;98215.06;4998263;28;21040;-68
2021/09/13 11:09:14;;;;;;;3.70;3.43;;;;;;;23.54;64.71;98216.16;4982372;28;20709;-69
2021/09/13 11:11:45;;;;;;;2.97;2.87;;;;;;;23.50;65.38;98204.19;4968967;28;20636;-69
2021/09/13 11:14:16;;;;;;;3.10;2.90;;;;;;;23.47;66.07;98215.50;4997141;28;20216;-70
2021/09/13 11:16:46;;;;;;;3.20;2.97;;;;;;;23.19;66.31;98209.00;4989038;28;20232;-70
2021/09/13 11:19:15;;;;;;;3.37;3.03;;;;;;;23.12;68.86;98209.97;4996808;28;20202;-70
2021/09/13 11:21:45;;;;;;;2.73;2.53;;;;;;;23.37;65.19;98208.84;4997371;28;20224;-71
2021/09/13 11:24:16;;;;;;;2.80;2.70;;;;;;;23.27;65.29;98205.94;4996963;28;20432;-69
2021/09/13 11:26:48;;;;;;;3.73;2.87;;;;;;;23.17;66.86;98208.41;4962111;28;20224;-70
2021/09/13 11:29:17;;;;;;;2.83;2.70;;;;;;;23.26;66.17;98202.41;4980595;28;20237;-70
2021/09/13 11:31:47;;;;;;;3.00;2.80;;;;;;;23.41;68.57;98207.28;4979814;28;20208;-69
2021/09/13 11:34:24;;;;;;;2.83;2.63;;;;;;;23.55;64.41;98212.38;4981319;28;20209;-70
2021/09/13 11:36:58;;;;;;;3.37;3.17;;;;;;;23.10;71.23;98206.69;4986739;28;20205;-69
2021/09/13 11:39:27;;;;;;;3.50;3.20;;;;;;;23.32;70.97;98206.06;5000430;28;20205;-69
2021/09/13 11:41:59;;;;;;;3.50;3.27;;;;;;;23.24;72.52;98206.38;4986089;28;20454;-70